Time;durP1;ratioP1;P1;durP2;ratioP2;P2;SDS_P1;SDS_P2;PMS_P1;PMS_P2;Temp;Humidity;BMP_temperature;BMP_pressure;BME280_temperature;BME280_humidity;BME280_pressure;Samples;Min_cycle;Max_cycle;Signal;HPM_P1;HPM_P2
2022/12/19 00:00:28;;;;;;;;;;;;;;;-1.25;56.57;102518.91;5033381;28;19979;-51
2022/12/19 00:02:53;;;;;;;;;;;;;;;-1.37;56.80;102510.44;5034611;28;19933;-51
2022/12/19 00:05:18;;;;;;;;;;;;;;;-1.42;57.03;102514.44;5048317;28;19954;-50
2022/12/19 00:07:46;;;;;;;;;;;;;;;-1.30;56.88;102527.19;5040578;28;19925;-51
2022/12/19 00:10:12;;;;;;;;;;;;;;;-1.31;56.67;102523.72;5053284;28;19963;-51
2022/12/19 00:12:37;;;;;;;;;;;;;;;-1.24;56.70;102527.53;5043189;28;20380;-51
2022/12/19 00:15:02;;;;;;;;;;;;;;;-1.33;56.23;102522.72;5050309;28;19921;-52
2022/12/19 00:17:28;;;;;;;;;;;;;;;-1.30;56.03;102524.59;5051978;28;19947;-52
2022/12/19 00:19:53;;;;;;;;;;;;;;;-1.46;56.11;102520.19;5053477;28;19920;-51
2022/12/19 00:22:18;;;;;;;;;;;;;;;-1.36;56.33;102516.47;5062870;28;19935;-55
2022/12/19 00:24:43;;;;;;;;;;;;;;;-1.42;56.52;102505.81;5063558;28;19921;-54
2022/12/19 00:27:08;;;;;;;;;;;;;;;-1.39;56.48;102501.72;5052523;28;19947;-52
2022/12/19 00:29:34;;;;;;;;;;;;;;;-1.39;56.80;102493.09;5045989;28;19924;-54
2022/12/19 00:31:59;;;;;;;;;;;;;;;-1.36;56.43;102494.16;5048342;28;19929;-56
2022/12/19 00:34:24;;;;;;;;;;;;;;;-1.36;56.67;102489.00;5055882;28;20089;-53
2022/12/19 00:36:50;;;;;;;;;;;;;;;-1.41;56.53;102479.22;5042266;28;19921;-52
2022/12/19 00:39:15;;;;;;;;;;;;;;;-1.45;56.66;102482.41;5051926;28;19971;-51
2022/12/19 00:41:40;;;;;;;;;;;;;;;-1.46;56.79;102478.06;5055620;28;20411;-53
2022/12/19 00:44:08;;;;;;;;;;;;;;;-1.53;57.02;102469.03;5056589;28;19924;-53
2022/12/19 00:46:34;;;;;;;;;;;;;;;-1.49;56.67;102473.59;5055124;28;20237;-55
2022/12/19 00:48:59;;;;;;;;;;;;;;;-1.55;56.76;102460.34;5056647;28;19921;-54
2022/12/19 00:51:26;;;;;;;;;;;;;;;-1.54;57.12;102456.97;5039536;28;19933;-51
2022/12/19 00:53:52;;;;;;;;;;;;;;;-1.65;57.58;102448.56;5036565;28;20372;-52
2022/12/19 00:56:19;;;;;;;;;;;;;;;-1.62;57.17;102448.75;5051948;28;19925;-53
2022/12/19 00:58:44;;;;;;;;;;;;;;;-1.62;56.96;102446.19;5045209;28;20270;-53
2022/12/19 01:01:18;;;;;;;;;;;;;;;-1.64;56.99;102446.88;5038281;28;20365;-51
2022/12/19 01:03:44;;;;;;;;;;;;;;;-1.69;57.22;102436.28;5036434;28;19917;-52
2022/12/19 01:06:10;;;;;;;;;;;;;;;-1.74;57.22;102422.25;5040762;28;19927;-51
2022/12/19 01:08:35;;;;;;;;;;;;;;;-1.86;57.50;102419.81;5047268;28;20381;-51
2022/12/19 01:11:00;;;;;;;;;;;;;;;-1.79;57.59;102424.53;5045901;28;19921;-52
2022/12/19 01:13:27;;;;;;;;;;;;;;;-1.70;57.19;102413.00;5041888;28;20425;-51
2022/12/19 01:15:52;;;;;;;;;;;;;;;-1.83;57.28;102424.28;5043364;28;19917;-51
2022/12/19 01:18:17;;;;;;;;;;;;;;;-1.85;57.52;102416.44;5052890;28;20008;-51
2022/12/19 01:20:46;;;;;;;;;;;;;;;-1.78;57.41;102421.16;5036771;28;20427;-50
2022/12/19 01:23:12;;;;;;;;;;;;;;;-1.74;57.40;102428.28;5054134;28;20003;-50
2022/12/19 01:25:37;;;;;;;;;;;;;;;-1.65;57.39;102434.78;5056111;28;20011;-52
2022/12/19 01:28:06;;;;;;;;;;;;;;;-1.68;57.21;102434.59;5055743;28;20008;-50
2022/12/19 01:30:31;;;;;;;;;;;;;;;-1.64;56.82;102441.72;5055969;28;19924;-51
2022/12/19 01:32:57;;;;;;;;;;;;;;;-1.58;57.01;102434.38;5035871;28;19921;-52
2022/12/19 01:35:23;;;;;;;;;;;;;;;-1.56;56.96;102428.50;5035890;28;19924;-51
2022/12/19 01:37:52;;;;;;;;;;;;;;;-1.52;57.22;102414.09;5036886;28;19925;-50
2022/12/19 01:40:18;;;;;;;;;;;;;;;-1.48;57.12;102400.59;5035587;28;19917;-51
2022/12/19 01:42:43;;;;;;;;;;;;;;;-1.52;57.24;102398.63;5053380;28;20054;-51
2022/12/19 01:45:08;;;;;;;;;;;;;;;-1.53;56.97;102399.44;5046973;28;20019;-51
2022/12/19 01:47:51;;;;;;;;;;;;;;;-1.55;57.22;102398.47;5055528;28;19917;-50
2022/12/19 01:50:22;;;;;;;;;;;;;;;-1.67;57.47;102387.44;5039776;28;20292;-53
2022/12/19 01:52:47;;;;;;;;;;;;;;;-1.64;57.29;102387.59;5046563;28;20296;-49
2022/12/19 01:55:13;;;;;;;;;;;;;;;-1.66;57.09;102392.66;5055556;28;20369;-51
2022/12/19 01:57:38;;;;;;;;;;;;;;;-1.67;57.24;102395.16;5055193;28;19972;-51
2022/12/19 02:00:05;;;;;;;;;;;;;;;-1.67;57.22;102397.75;5050658;28;19925;-51
2022/12/19 02:02:32;;;;;;;;;;;;;;;-1.63;57.17;102391.97;5035316;28;20011;-51
2022/12/19 02:05:00;;;;;;;;;;;;;;;-1.66;57.33;102390.09;5035517;28;19964;-52
2022/12/19 02:07:26;;;;;;;;;;;;;;;-1.61;57.37;102380.03;5037470;28;19924;-51
2022/12/19 02:09:53;;;;;;;;;;;;;;;-1.58;57.11;102390.53;5054135;28;19948;-54
2022/12/19 02:12:18;;;;;;;;;;;;;;;-1.62;57.21;102383.44;5054317;28;20299;-53
2022/12/19 02:14:44;;;;;;;;;;;;;;;-1.58;57.28;102387.97;5052935;28;20381;-51
2022/12/19 02:17:15;;;;;;;;;;;;;;;-1.55;56.96;102389.03;5040278;28;19935;-50
2022/12/19 02:19:49;;;;;;;;;;;;;;;-1.56;57.04;102382.06;5055080;28;19919;-51
2022/12/19 02:22:33;;;;;;;;;;;;;;;-1.76;57.23;102373.16;5046116;28;20139;-51
2022/12/19 02:25:07;;;;;;;;;;;;;;;-1.79;57.12;102366.97;5053556;28;19956;-51
2022/12/19 02:27:32;;;;;;;;;;;;;;;-1.85;57.69;102372.63;5054922;28;19916;-52
2022/12/19 02:29:58;;;;;;;;;;;;;;;-1.82;57.28;102365.06;5054750;28;20598;-50
2022/12/19 02:32:31;;;;;;;;;;;;;;;-1.83;57.71;102365.88;5054843;28;20015;-53
2022/12/19 02:35:02;;;;;;;;;;;;;;;-1.80;57.58;102353.16;5041085;28;19924;-50
2022/12/19 02:37:30;;;;;;;;;;;;;;;-1.82;57.54;102357.34;5042568;28;19965;-53
2022/12/19 02:40:01;;;;;;;;;;;;;;;-1.81;57.84;102351.38;5034709;28;19924;-54
2022/12/19 02:42:31;;;;;;;;;;;;;;;-1.77;57.59;102350.78;5034748;28;20369;-53
2022/12/19 02:44:57;;;;;;;;;;;;;;;-1.83;57.47;102352.09;5049909;28;19920;-52
2022/12/19 02:47:22;;;;;;;;;;;;;;;-1.83;57.79;102350.41;5036399;28;19974;-51
2022/12/19 02:49:47;;;;;;;;;;;;;;;-1.76;57.56;102341.34;5034292;28;19925;-55
2022/12/19 02:52:19;;;;;;;;;;;;;;;-1.79;57.81;102347.22;5033032;28;19925;-51
2022/12/19 02:54:45;;;;;;;;;;;;;;;-1.81;57.74;102358.22;5033933;28;19924;-52
2022/12/19 02:57:19;;;;;;;;;;;;;;;-1.92;57.83;102355.00;5033176;28;19921;-51
2022/12/19 03:00:05;;;;;;;;;;;;;;;-1.96;58.02;102340.16;5034272;28;19951;-53
2022/12/19 03:02:30;;;;;;;;;;;;;;;-1.95;58.02;102338.50;5029958;28;19926;-52
2022/12/19 03:05:05;;;;;;;;;;;;;;;-1.94;58.17;102336.00;5033814;28;20365;-50
2022/12/19 03:07:46;;;;;;;;;;;;;;;-1.90;57.82;102332.81;5036946;28;19928;-50
2022/12/19 03:10:18;;;;;;;;;;;;;;;-1.96;57.81;102323.81;5037633;28;20430;-50
2022/12/19 03:12:50;;;;;;;;;;;;;;;-1.97;57.91;102322.91;5052476;28;20054;-50
2022/12/19 03:15:15;;;;;;;;;;;;;;;-2.07;57.91;102318.91;5054459;28;19917;-49
2022/12/19 03:17:41;;;;;;;;;;;;;;;-2.13;58.42;102317.66;5040047;28;20439;-50
2022/12/19 03:20:18;;;;;;;;;;;;;;;-2.13;58.45;102307.34;5044323;28;19943;-51
2022/12/19 03:22:44;;;;;;;;;;;;;;;-2.22;58.83;102307.69;5040810;28;20007;-50
2022/12/19 03:25:09;;;;;;;;;;;;;;;-2.25;58.47;102313.53;5051883;28;19975;-51
2022/12/19 03:27:36;;;;;;;;;;;;;;;-2.19;58.64;102304.38;5044061;28;19921;-55
2022/12/19 03:30:03;;;;;;;;;;;;;;;-2.20;58.62;102303.50;5033796;28;19919;-52
2022/12/19 03:32:30;;;;;;;;;;;;;;;-2.15;58.32;102308.94;5033545;28;19921;-51
2022/12/19 03:34:55;;;;;;;;;;;;;;;-2.24;58.54;102314.41;5033598;28;19963;-51
2022/12/19 03:37:23;;;;;;;;;;;;;;;-2.12;58.47;102310.00;5033739;28;19917;-52
2022/12/19 03:39:51;;;;;;;;;;;;;;;-2.12;58.63;102306.53;5043507;28;19920;-54
2022/12/19 03:45:03;;;;;;;;;;;;;;;-2.17;58.46;102289.94;5045338;28;19932;-50
2022/12/19 03:47:34;;;;;;;;;;;;;;;-2.28;58.14;102281.53;5033806;28;19924;-52
2022/12/19 03:49:59;;;;;;;;;;;;;;;-2.24;58.58;102284.38;5033756;28;19966;-52
2022/12/19 03:52:33;;;;;;;;;;;;;;;-2.26;58.83;102285.13;5033864;28;20012;-51
2022/12/19 03:55:07;;;;;;;;;;;;;;;-2.23;58.35;102277.59;5052311;28;19920;-51
2022/12/19 03:57:40;;;;;;;;;;;;;;;-2.20;58.61;102277.75;5047483;28;19968;-50
2022/12/19 04:00:06;;;;;;;;;;;;;;;-2.22;58.67;102281.03;5033684;28;19920;-51
2022/12/19 04:02:35;;;;;;;;;;;;;;;-2.20;58.36;102285.47;5033455;28;20285;-54
2022/12/19 04:05:05;;;;;;;;;;;;;;;-2.19;58.48;102286.34;5042859;28;20375;-53
2022/12/19 04:07:31;;;;;;;;;;;;;;;-2.18;58.29;102286.47;5057238;28;19968;-53
2022/12/19 04:09:59;;;;;;;;;;;;;;;-2.09;58.47;102288.69;5057353;28;20026;-51
2022/12/19 04:12:27;;;;;;;;;;;;;;;-2.08;58.27;102282.75;5045566;28;20067;-54
2022/12/19 04:14:52;;;;;;;;;;;;;;;-2.02;57.75;102288.28;5037733;28;19917;-50
2022/12/19 04:17:18;;;;;;;;;;;;;;;-2.09;57.78;102278.41;5039193;28;19923;-54
2022/12/19 04:19:48;;;;;;;;;;;;;;;-2.11;57.73;102272.28;5037287;28;20385;-52
2022/12/19 04:22:19;;;;;;;;;;;;;;;-2.23;57.98;102272.44;5045718;28;19928;-54
2022/12/19 04:24:47;;;;;;;;;;;;;;;-2.11;57.43;102259.41;5040096;28;19917;-56
2022/12/19 04:27:13;;;;;;;;;;;;;;;-2.16;57.64;102259.09;5049807;28;19979;-54
2022/12/19 04:29:38;;;;;;;;;;;;;;;-2.14;57.51;102262.66;5044653;28;19929;-54
2022/12/19 04:32:05;;;;;;;;;;;;;;;-2.17;57.75;102267.63;5051685;28;19920;-55
2022/12/19 04:34:31;;;;;;;;;;;;;;;-2.23;57.77;102256.97;5040889;28;19944;-55
2022/12/19 04:36:56;;;;;;;;;;;;;;;-2.18;57.71;102262.41;5052567;28;19921;-54
2022/12/19 04:39:21;;;;;;;;;;;;;;;-2.19;57.53;102260.59;5040778;28;19927;-49
2022/12/19 04:41:46;;;;;;;;;;;;;;;-2.25;57.52;102251.72;5054400;28;19925;-55
2022/12/19 04:44:12;;;;;;;;;;;;;;;-2.33;57.37;102260.66;5057031;28;19924;-54
2022/12/19 04:46:37;;;;;;;;;;;;;;;-2.36;57.79;102252.75;5055973;28;20399;-51
2022/12/19 04:49:02;;;;;;;;;;;;;;;-2.44;57.70;102259.13;5053320;28;19929;-53
2022/12/19 04:51:27;;;;;;;;;;;;;;;-2.46;57.98;102254.69;5052190;28;19928;-50
2022/12/19 04:53:53;;;;;;;;;;;;;;;-2.53;57.85;102261.16;5038847;28;19931;-51
2022/12/19 04:56:18;;;;;;;;;;;;;;;-2.57;58.05;102257.50;5038932;28;19928;-54
2022/12/19 04:58:43;;;;;;;;;;;;;;;-2.57;57.91;102264.31;5039428;28;19943;-53
2022/12/19 05:01:09;;;;;;;;;;;;;;;-2.64;58.17;102263.06;5038669;28;19929;-53
2022/12/19 05:03:34;;;;;;;;;;;;;;;-2.73;58.32;102253.09;5039636;28;19925;-54
2022/12/19 05:06:06;;;;;;;;;;;;;;;-2.64;58.29;102245.03;5052131;28;19925;-55
2022/12/19 05:08:32;;;;;;;;;;;;;;;-2.64;58.29;102259.59;5051058;28;20257;-54
2022/12/19 05:11:00;;;;;;;;;;;;;;;-2.57;57.88;102265.22;5052671;28;20462;-54
2022/12/19 05:13:26;;;;;;;;;;;;;;;-2.63;57.85;102262.28;5049179;28;19943;-53
2022/12/19 05:15:58;;;;;;;;;;;;;;;-2.61;58.13;102262.38;5051109;28;19921;-53
2022/12/19 05:18:24;;;;;;;;;;;;;;;-2.66;58.06;102266.34;5051259;28;19921;-55
2022/12/19 05:20:49;;;;;;;;;;;;;;;-2.75;58.05;102252.13;5038883;28;19924;-55
2022/12/19 05:23:14;;;;;;;;;;;;;;;-2.80;58.39;102250.91;5048686;28;20012;-54
2022/12/19 05:25:40;;;;;;;;;;;;;;;-2.82;58.24;102257.66;5065644;28;19924;-53
2022/12/19 05:28:05;;;;;;;;;;;;;;;-2.85;58.18;102252.31;5046067;28;20119;-55
2022/12/19 05:30:30;;;;;;;;;;;;;;;-2.98;58.83;102254.94;5054894;28;19928;-50
2022/12/19 05:32:55;;;;;;;;;;;;;;;-3.06;58.60;102248.41;5054608;28;19928;-49
2022/12/19 05:35:21;;;;;;;;;;;;;;;-3.09;59.06;102237.94;5042318;28;19977;-55
2022/12/19 05:37:46;;;;;;;;;;;;;;;-3.14;59.41;102234.19;5034097;28;19921;-55
2022/12/19 05:40:11;;;;;;;;;;;;;;;-3.14;59.46;102234.19;5044970;28;19925;-52
2022/12/19 05:42:37;;;;;;;;;;;;;;;-3.20;59.69;102236.34;5050198;28;19925;-55
2022/12/19 05:45:02;;;;;;;;;;;;;;;-3.15;59.36;102235.88;5034491;28;20377;-52
2022/12/19 05:47:27;;;;;;;;;;;;;;;-3.17;59.46;102231.41;5035777;28;19944;-55
2022/12/19 05:49:53;;;;;;;;;;;;;;;-3.19;59.31;102230.41;5035458;28;20293;-54
2022/12/19 05:52:18;;;;;;;;;;;;;;;-3.22;59.52;102224.31;5044197;28;19987;-54
2022/12/19 05:54:43;;;;;;;;;;;;;;;-3.23;59.50;102213.94;5035540;28;19967;-53
2022/12/19 05:57:08;;;;;;;;;;;;;;;-3.31;59.76;102203.16;5047648;28;19925;-54
2022/12/19 05:59:34;;;;;;;;;;;;;;;-3.26;59.71;102216.31;5052717;28;19924;-56
2022/12/19 06:01:59;;;;;;;;;;;;;;;-3.39;60.02;102217.22;5045738;28;19929;-53
2022/12/19 06:04:24;;;;;;;;;;;;;;;-3.35;60.01;102198.63;5037137;28;19979;-54
2022/12/19 06:06:50;;;;;;;;;;;;;;;-3.37;60.03;102194.16;5040668;28;19929;-55
2022/12/19 06:09:15;;;;;;;;;;;;;;;-3.32;59.92;102193.66;5040483;28;19929;-54
2022/12/19 06:11:40;;;;;;;;;;;;;;;-3.31;60.04;102194.53;5038782;28;19960;-50
2022/12/19 06:14:05;;;;;;;;;;;;;;;-3.33;59.79;102183.28;5047093;28;19971;-50
2022/12/19 06:16:31;;;;;;;;;;;;;;;-3.28;59.66;102185.34;5047533;28;19925;-52
2022/12/19 06:18:56;;;;;;;;;;;;;;;-3.26;59.86;102177.75;5050806;28;20000;-51
2022/12/19 06:21:22;;;;;;;;;;;;;;;-3.27;59.44;102179.41;5049231;28;19920;-54
2022/12/19 06:23:47;;;;;;;;;;;;;;;-3.30;59.56;102174.09;5043158;28;19976;-54
2022/12/19 06:26:14;;;;;;;;;;;;;;;-3.25;59.69;102180.38;5041957;28;20449;-55
2022/12/19 06:28:40;;;;;;;;;;;;;;;-3.28;59.37;102182.75;5037755;28;20018;-55
2022/12/19 06:31:06;;;;;;;;;;;;;;;-3.33;59.55;102176.44;5040545;28;19964;-53
2022/12/19 06:33:32;;;;;;;;;;;;;;;-3.28;59.89;102175.03;5043307;28;20388;-53
2022/12/19 06:36:01;;;;;;;;;;;;;;;-3.27;59.76;102179.41;5065405;28;19921;-54
2022/12/19 06:38:27;;;;;;;;;;;;;;;-3.37;60.13;102169.34;5054796;28;19967;-55
2022/12/19 06:43:36;;;;;;;;;;;;;;;-3.29;59.39;102173.28;5053579;28;19983;-54
2022/12/19 06:46:02;;;;;;;;;;;;;;;-3.38;59.85;102172.72;5036553;28;19969;-52
2022/12/19 06:48:27;;;;;;;;;;;;;;;-3.37;59.80;102177.06;5035336;28;20337;-55
2022/12/19 06:50:52;;;;;;;;;;;;;;;-3.33;59.53;102175.56;5037723;28;20023;-55
2022/12/19 06:53:17;;;;;;;;;;;;;;;-3.37;59.57;102171.91;5036796;28;19925;-54
2022/12/19 06:55:43;;;;;;;;;;;;;;;-3.36;59.44;102160.81;5036352;28;20379;-54
2022/12/19 06:58:08;;;;;;;;;;;;;;;-3.25;59.37;102164.06;5036490;28;19951;-53
2022/12/19 07:00:34;;;;;;;;;;;;;;;-3.37;59.63;102148.78;5037091;28;20277;-55
2022/12/19 07:03:00;;;;;;;;;;;;;;;-3.33;59.80;102132.75;5043375;28;20283;-56
2022/12/19 07:05:25;;;;;;;;;;;;;;;-3.30;59.35;102129.50;5050520;28;20403;-53
2022/12/19 07:07:51;;;;;;;;;;;;;;;-3.30;59.39;102132.06;5038167;28;19925;-54
2022/12/19 07:10:16;;;;;;;;;;;;;;;-3.33;59.58;102125.03;5034493;28;19983;-53
2022/12/19 07:12:41;;;;;;;;;;;;;;;-3.23;59.50;102135.13;5035375;28;20395;-52
2022/12/19 07:15:07;;;;;;;;;;;;;;;-3.28;59.35;102135.59;5036389;28;19925;-51
2022/12/19 07:17:32;;;;;;;;;;;;;;;-3.25;59.51;102140.94;5045258;28;19935;-53
2022/12/19 07:19:58;;;;;;;;;;;;;;;-3.13;59.23;102145.97;5036221;28;19925;-55
2022/12/19 07:22:25;;;;;;;;;;;;;;;-3.04;58.89;102138.78;5042226;28;19925;-56
2022/12/19 07:24:50;;;;;;;;;;;;;;;-3.11;58.95;102141.78;5041972;28;19921;-53
2022/12/19 07:27:16;;;;;;;;;;;;;;;-2.98;58.82;102141.75;5044094;28;19927;-55
2022/12/19 07:29:41;;;;;;;;;;;;;;;-3.00;58.82;102143.34;5043207;28;19925;-53
2022/12/19 07:32:07;;;;;;;;;;;;;;;-2.88;58.66;102148.34;5038511;28;20023;-52
2022/12/19 07:34:32;;;;;;;;;;;;;;;-2.89;58.24;102144.00;5034968;28;19932;-50
2022/12/19 07:36:57;;;;;;;;;;;;;;;-2.84;58.49;102140.91;5035705;28;20347;-53
2022/12/19 07:39:22;;;;;;;;;;;;;;;-2.80;58.34;102140.28;5036815;28;19964;-53
2022/12/19 07:41:48;;;;;;;;;;;;;;;-2.82;58.03;102126.47;5039670;28;19925;-53
2022/12/19 07:44:15;;;;;;;;;;;;;;;-2.79;58.25;102126.66;5051186;28;20003;-52
2022/12/19 07:46:40;;;;;;;;;;;;;;;-2.67;58.30;102115.28;5040238;28;19929;-51
2022/12/19 07:49:06;;;;;;;;;;;;;;;-2.69;57.98;102116.91;5035704;28;19928;-51
2022/12/19 07:51:31;;;;;;;;;;;;;;;-2.56;57.93;102114.25;5035423;28;20292;-53
2022/12/19 07:53:56;;;;;;;;;;;;;;;-2.49;57.74;102108.66;5042077;28;20003;-51
2022/12/19 07:56:22;;;;;;;;;;;;;;;-2.51;57.64;102103.44;5033160;28;20015;-54
2022/12/19 07:58:47;;;;;;;;;;;;;;;-2.50;57.49;102102.63;5036826;28;19925;-54
2022/12/19 08:01:12;;;;;;;;;;;;;;;-2.39;57.48;102095.53;5035269;28;20389;-56
2022/12/19 08:03:37;;;;;;;;;;;;;;;-2.30;57.21;102085.75;5045590;28;19963;-55
2022/12/19 08:06:04;;;;;;;;;;;;;;;-2.30;57.13;102088.34;5035628;28;20011;-56
2022/12/19 08:08:30;;;;;;;;;;;;;;;-2.20;57.05;102091.44;5042994;28;19959;-54
2022/12/19 08:10:55;;;;;;;;;;;;;;;-2.19;57.03;102088.03;5034647;28;20337;-52
2022/12/19 08:13:21;;;;;;;;;;;;;;;-2.19;56.74;102082.91;5038795;28;19928;-53
2022/12/19 08:15:46;;;;;;;;;;;;;;;-2.06;56.86;102077.66;5047916;28;19921;-57
2022/12/19 08:18:12;;;;;;;;;;;;;;;-2.01;56.75;102081.38;5048690;28;19925;-55
2022/12/19 08:20:37;;;;;;;;;;;;;;;-2.01;56.55;102078.81;5049300;28;19967;-55
2022/12/19 08:23:02;;;;;;;;;;;;;;;-1.94;56.37;102086.06;5047462;28;19990;-54
2022/12/19 08:25:27;;;;;;;;;;;;;;;-1.91;56.33;102083.69;5049430;28;19932;-55
2022/12/19 08:27:53;;;;;;;;;;;;;;;-1.78;56.09;102074.94;5047670;28;20196;-54
2022/12/19 08:30:18;;;;;;;;;;;;;;;-1.85;55.99;102071.13;5047684;28;19921;-56
2022/12/19 08:32:44;;;;;;;;;;;;;;;-1.75;56.07;102075.13;5042187;28;20343;-54
2022/12/19 08:35:09;;;;;;;;;;;;;;;-1.61;55.94;102065.53;5035687;28;19933;-55
2022/12/19 08:37:34;;;;;;;;;;;;;;;-1.53;55.37;102059.09;5035109;28;20000;-55
2022/12/19 08:40:00;;;;;;;;;;;;;;;-1.44;55.67;102054.44;5036276;28;19929;-55
2022/12/19 08:42:25;;;;;;;;;;;;;;;-1.33;55.42;102047.28;5034961;28;20314;-55
2022/12/19 08:44:50;;;;;;;;;;;;;;;-1.38;55.35;102044.47;5036117;28;19925;-55
2022/12/19 08:47:15;;;;;;;;;;;;;;;-1.27;55.08;102040.78;5036037;28;19955;-55
2022/12/19 08:49:41;;;;;;;;;;;;;;;-1.22;54.94;102022.94;5038804;28;19936;-55
2022/12/19 08:52:06;;;;;;;;;;;;;;;-1.14;54.74;102018.19;5038121;28;19991;-54
2022/12/19 08:54:31;;;;;;;;;;;;;;;-1.20;54.89;102005.84;5038077;28;19926;-55
2022/12/19 08:56:57;;;;;;;;;;;;;;;-1.15;54.45;102003.53;5047808;28;19925;-55
2022/12/19 08:59:22;;;;;;;;;;;;;;;-1.02;54.33;102000.75;5044828;28;19932;-52
2022/12/19 09:01:47;;;;;;;;;;;;;;;-1.05;54.34;101978.25;5042757;28;19929;-55
2022/12/19 09:04:13;;;;;;;;;;;;;;;-1.06;54.16;101973.91;5053119;28;20016;-56
2022/12/19 09:06:39;;;;;;;;;;;;;;;-0.97;54.50;101970.03;5052343;28;20272;-54
2022/12/19 09:09:04;;;;;;;;;;;;;;;-0.97;54.26;101968.31;5052013;28;20372;-54
2022/12/19 09:11:30;;;;;;;;;;;;;;;-0.89;53.89;101963.56;5042480;28;19932;-54
2022/12/19 09:13:56;;;;;;;;;;;;;;;-0.89;54.01;101969.59;5036140;28;19921;-56
2022/12/19 09:16:22;;;;;;;;;;;;;;;-0.87;53.86;101968.00;5036530;28;19917;-52
2022/12/19 09:18:49;;;;;;;;;;;;;;;-0.86;53.75;101974.03;5036410;28;20315;-53
2022/12/19 09:21:14;;;;;;;;;;;;;;;-0.81;54.12;101969.97;5035924;28;19917;-54
2022/12/19 09:23:40;;;;;;;;;;;;;;;-0.72;53.72;101967.84;5047190;28;19931;-53
2022/12/19 09:26:07;;;;;;;;;;;;;;;-0.60;53.49;101965.91;5051444;28;19932;-53
2022/12/19 09:28:33;;;;;;;;;;;;;;;-0.56;53.64;101952.31;5051002;28;19921;-52
2022/12/19 09:30:59;;;;;;;;;;;;;;;-0.43;53.19;101947.75;5050599;28;19925;-53
2022/12/19 09:33:25;;;;;;;;;;;;;;;-0.35;53.33;101949.88;5052387;28;19921;-52
2022/12/19 09:35:51;;;;;;;;;;;;;;;-0.33;53.24;101934.44;5052303;28;19924;-54
2022/12/19 09:38:16;;;;;;;;;;;;;;;-0.19;52.85;101922.19;5039035;28;19956;-53
2022/12/19 09:40:56;;;;;;;;;;;;;;;-0.18;53.34;101927.41;5038162;28;20080;-54
2022/12/19 09:43:34;;;;;;;;;;;;;;;-0.03;52.82;101929.84;5051423;28;20447;-52
2022/12/19 09:45:59;;;;;;;;;;;;;;;0.06;53.02;101917.31;5050999;28;20354;-53
2022/12/19 09:48:24;;;;;;;;;;;;;;;0.08;52.63;101907.03;5051773;28;20015;-54
2022/12/19 09:50:53;;;;;;;;;;;;;;;0.02;52.98;101897.31;5043045;28;20393;-54
2022/12/19 09:53:32;;;;;;;;;;;;;;;0.12;53.02;101896.94;5051799;28;19925;-52
2022/12/19 09:55:58;;;;;;;;;;;;;;;0.15;53.09;101891.88;5043241;28;19921;-54
2022/12/19 09:58:26;;;;;;;;;;;;;;;0.24;52.90;101884.56;5044332;28;20023;-55
2022/12/19 10:00:56;;;;;;;;;;;;;;;0.26;52.81;101879.44;5036218;28;20340;-54
2022/12/19 10:03:29;;;;;;;;;;;;;;;0.39;53.05;101883.44;5041726;28;20329;-57
2022/12/19 10:06:04;;;;;;;;;;;;;;;0.39;52.92;101875.69;5037184;28;20328;-55
2022/12/19 10:08:31;;;;;;;;;;;;;;;0.24;53.02;101866.44;5037379;28;19921;-55
2022/12/19 10:11:05;;;;;;;;;;;;;;;0.33;53.00;101858.22;5037050;28;20396;-52
2022/12/19 10:13:31;;;;;;;;;;;;;;;0.42;53.31;101857.72;5037077;28;19932;-55
2022/12/19 10:16:04;;;;;;;;;;;;;;;0.39;53.14;101855.88;5037337;28;19921;-55
2022/12/19 10:18:48;;;;;;;;;;;;;;;0.52;53.17;101858.97;5036441;28;20015;-54
2022/12/19 10:21:32;;;;;;;;;;;;;;;0.62;52.90;101861.16;5039307;28;19921;-57
2022/12/19 10:24:16;;;;;;;;;;;;;;;0.76;52.61;101848.78;5050653;28;19921;-56
2022/12/19 10:26:42;;;;;;;;;;;;;;;0.90;52.45;101834.72;5039212;28;20019;-55
2022/12/19 10:29:26;;;;;;;;;;;;;;;0.84;52.67;101834.44;5045689;28;20308;-52
2022/12/19 10:32:11;;;;;;;;;;;;;;;0.97;52.35;101837.63;5039838;28;19921;-56
2022/12/19 10:34:40;;;;;;;;;;;;;;;0.98;52.35;101833.31;5036832;28;19925;-52
2022/12/19 10:37:13;;;;;;;;;;;;;;;0.87;52.64;101827.69;5038059;28;19929;-52
2022/12/19 10:39:53;;;;;;;;;;;;;;;0.89;52.29;101820.03;5037033;28;19921;-55
2022/12/19 10:42:38;;;;;;;;;;;;;;;1.04;52.34;101812.88;5049766;28;19975;-55
2022/12/19 10:45:08;;;;;;;;;;;;;;;1.14;52.42;101804.63;5018050;28;19921;-55
2022/12/19 10:47:34;;;;;;;;;;;;;;;1.31;51.97;101801.81;5036464;28;20380;-55
2022/12/19 10:49:59;;;;;;;;;;;;;;;1.39;52.04;101797.81;5036882;28;20028;-53
2022/12/19 10:52:44;;;;;;;;;;;;;;;1.49;51.81;101799.94;5038576;28;20410;-51
2022/12/19 10:55:28;;;;;;;;;;;;;;;1.56;51.65;101791.59;5034208;28;19921;-51
2022/12/19 10:57:56;;;;;;;;;;;;;;;1.66;51.38;101782.44;5036304;28;19925;-57
2022/12/19 11:00:22;;;;;;;;;;;;;;;1.70;51.51;101776.53;5048348;28;20015;-54
2022/12/19 11:02:50;;;;;;;;;;;;;;;1.65;51.36;101778.97;5050873;28;20019;-54
2022/12/19 11:05:21;;;;;;;;;;;;;;;1.61;51.68;101773.59;5049184;28;20004;-54
2022/12/19 11:08:05;;;;;;;;;;;;;;;1.69;51.42;101767.00;5050561;28;19920;-52
2022/12/19 11:10:35;;;;;;;;;;;;;;;1.67;51.44;101753.97;5049591;28;20406;-58
2022/12/19 11:13:00;;;;;;;;;;;;;;;1.65;51.63;101745.28;5037477;28;19913;-54
2022/12/19 11:15:26;;;;;;;;;;;;;;;1.50;51.69;101752.47;5037245;28;19924;-56
2022/12/19 11:17:51;;;;;;;;;;;;;;;1.51;51.63;101746.47;5034103;28;19917;-51
2022/12/19 11:20:21;;;;;;;;;;;;;;;1.47;52.08;101739.41;5033842;28;20373;-52
2022/12/19 11:22:54;;;;;;;;;;;;;;;1.47;52.22;101739.41;5034024;28;19967;-55
2022/12/19 11:25:21;;;;;;;;;;;;;;;1.64;52.03;101742.63;5033989;28;19917;-56
2022/12/19 11:27:49;;;;;;;;;;;;;;;1.67;51.78;101738.41;5033173;28;19917;-55
2022/12/19 11:30:14;;;;;;;;;;;;;;;1.69;51.79;101728.13;5033245;28;19958;-58
2022/12/19 11:32:41;;;;;;;;;;;;;;;1.85;51.68;101721.78;5034132;28;19944;-55
2022/12/19 11:35:15;;;;;;;;;;;;;;;1.87;51.36;101725.28;5033896;28;19917;-56
2022/12/19 11:37:50;;;;;;;;;;;;;;;2.03;51.32;101721.53;5033790;28;20377;-53
2022/12/19 11:40:18;;;;;;;;;;;;;;;2.04;51.25;101708.63;5033980;28;19957;-54
2022/12/19 11:42:50;;;;;;;;;;;;;;;2.05;51.21;101702.59;5032683;28;19917;-52
2022/12/19 11:45:35;;;;;;;;;;;;;;;2.28;50.95;101705.97;5033427;28;19922;-53
2022/12/19 11:48:09;;;;;;;;;;;;;;;2.43;50.46;101690.94;5029879;28;19936;-52
2022/12/19 11:50:38;;;;;;;;;;;;;;;2.56;50.45;101678.34;5053542;28;19986;-55
2022/12/19 11:53:14;;;;;;;;;;;;;;;2.70;50.12;101657.16;5053530;28;19977;-55
2022/12/19 11:55:45;;;;;;;;;;;;;;;2.70;49.85;101670.13;5051327;28;19917;-55
2022/12/19 11:58:11;;;;;;;;;;;;;;;2.75;49.62;101661.59;5053303;28;19925;-54
2022/12/19 12:00:43;;;;;;;;;;;;;;;2.71;49.89;101658.94;5053453;28;19925;-57
2022/12/19 12:03:17;;;;;;;;;;;;;;;2.66;50.15;101649.22;5053858;28;19917;-53
2022/12/19 12:05:46;;;;;;;;;;;;;;;2.70;50.16;101644.19;5053532;28;19921;-53
2022/12/19 12:08:24;;;;;;;;;;;;;;;2.60;50.12;101642.16;5053392;28;19971;-56
2022/12/19 12:10:59;;;;;;;;;;;;;;;2.41;50.65;101642.41;5047081;28;20368;-57
2022/12/19 12:13:24;;;;;;;;;;;;;;;2.39;50.82;101644.06;5039110;28;19917;-57
2022/12/19 12:16:19;;;;;;;;;;;;;;;2.39;50.88;101631.09;5053090;28;19924;-54
2022/12/19 12:19:03;;;;;;;;;;;;;;;2.44;51.02;101621.75;5039121;28;20015;-53
2022/12/19 12:21:35;;;;;;;;;;;;;;;2.40;51.18;101612.13;5047838;28;19921;-55
2022/12/19 12:24:14;;;;;;;;;;;;;;;2.42;50.87;101618.22;5048842;28;19974;-52
2022/12/19 12:27:00;;;;;;;;;;;;;;;2.42;51.01;101600.94;5051642;28;20413;-51
2022/12/19 12:29:42;;;;;;;;;;;;;;;2.29;51.30;101597.94;5045730;28;20388;-53
2022/12/19 12:32:13;;;;;;;;;;;;;;;2.43;51.09;101607.91;5038857;28;19960;-52
2022/12/19 12:34:38;;;;;;;;;;;;;;;2.40;51.01;101604.34;5050555;28;19927;-54
2022/12/19 12:37:10;;;;;;;;;;;;;;;2.34;51.22;101592.03;5053869;28;20333;-54
2022/12/19 12:39:35;;;;;;;;;;;;;;;2.36;51.38;101589.50;5044519;28;20364;-56
2022/12/19 12:42:03;;;;;;;;;;;;;;;2.38;51.37;101586.09;5039767;28;19932;-53
2022/12/19 12:44:38;;;;;;;;;;;;;;;2.39;51.29;101576.59;5044602;28;19921;-52
2022/12/19 12:47:12;;;;;;;;;;;;;;;2.49;51.20;101573.47;5039150;28;19921;-54